.
WxDataArchive / Data Records for 2009-01-15
2009-01-14 January 2009 2009-01-16

Data Records for Thursday, 15 January 2009

Time	Temp	Chill	HIndex	Humid	Dewpt	 Wind 	HiWind	WindDir	Rain 	Barom 
-----	----	-----	------	-----	-----	------	------	-------	-----	----- 
00:00	3.0	3.0	3.0	81	-1.5	0	1	315	0.00	30.358 
00:05	2.8	2.8	2.8	81	-1.7	0	1	315	0.00	30.357 
00:10	2.8	2.8	2.8	81	-1.7	0	1	270	0.00	30.357 
00:15	2.8	2.8	2.8	81	-1.7	0	1	270	0.00	30.358 
00:20	2.8	2.8	2.8	81	-1.7	0	1	270	0.00	30.358 
00:25	2.8	2.8	2.8	81	-1.7	0	1	270	0.00	30.361 
00:30	2.6	2.6	2.6	81	-1.9	0	1	270	0.00	30.364 
00:35	2.4	2.4	2.4	81	-2.1	0	0	---	0.00	30.364 
00:40	2.0	2.0	2.0	80	-2.7	0	0	---	0.00	30.366 
00:45	1.8	1.8	1.8	80	-2.9	0	0	---	0.00	30.368 
00:50	1.5	1.5	1.5	80	-3.2	0	0	---	0.00	30.368 
00:55	1.3	1.3	1.3	80	-3.4	0	0	---	0.00	30.372 
01:00	1.1	1.1	1.1	80	-3.6	0	0	---	0.00	30.370 
01:05	0.9	0.9	0.9	80	-3.8	0	0	---	0.00	30.372 
01:10	0.7	0.7	0.7	80	-4.0	0	0	---	0.00	30.374 
01:15	0.5	0.5	0.5	80	-4.2	0	0	---	0.00	30.374 
01:20	0.5	0.5	0.5	80	-4.2	0	0	---	0.00	30.374 
01:25	0.5	0.5	0.5	80	-4.2	0	0	---	0.00	30.374 
01:30	0.5	0.5	0.5	80	-4.2	0	0	---	0.00	30.374 
01:35	0.3	0.3	0.3	80	-4.4	0	0	---	0.00	30.375 
01:40	0.0	0.0	0.0	80	-4.7	0	0	---	0.00	30.377 
01:45	-0.2	-0.2	-0.2	80	-4.9	0	0	---	0.00	30.377 
01:50	-0.4	-0.4	-0.4	79	-5.3	0	0	---	0.00	30.379 
01:55	-0.6	-0.6	-0.6	79	-5.5	0	1	270	0.00	30.382 
02:00	-0.4	-0.4	-0.4	80	-5.1	0	0	---	0.00	30.388 
02:05	-0.2	-0.2	-0.2	80	-4.9	0	0	---	0.00	30.388 
02:10	0.0	0.0	0.0	80	-4.7	0	1	270	0.00	30.389 
02:15	0.1	0.1	0.1	81	-4.3	0	1	270	0.00	30.389 
02:20	0.1	0.1	0.1	81	-4.3	0	0	---	0.00	30.390 
02:25	0.3	0.3	0.3	81	-4.1	0	0	---	0.00	30.391 
02:30	0.3	0.3	0.3	81	-4.1	0	0	---	0.00	30.393 
02:35	0.3	0.3	0.3	80	-4.4	0	1	270	0.00	30.394 
02:40	0.3	0.3	0.3	80	-4.4	0	1	270	0.00	30.398 
02:45	0.3	0.3	0.3	80	-4.4	0	1	270	0.00	30.401 
02:50	0.3	0.3	0.3	80	-4.4	0	0	---	0.00	30.403 
02:55	0.3	0.3	0.3	80	-4.4	0	1	270	0.00	30.402 
03:00	0.3	0.3	0.3	80	-4.4	0	1	270	0.00	30.404 
03:05	0.3	0.3	0.3	80	-4.4	0	0	---	0.00	30.406 
03:10	0.1	0.1	0.1	80	-4.6	0	0	---	0.00	30.406 
03:15	0.1	0.1	0.1	80	-4.6	0	0	---	0.00	30.407 
03:20	0.0	0.0	0.0	80	-4.7	0	0	---	0.00	30.406 
03:25	-0.2	-0.2	-0.2	80	-4.9	0	0	---	0.00	30.407 
03:30	-0.2	-0.2	-0.2	80	-4.9	0	0	---	0.00	30.410 
03:35	-0.2	-0.2	-0.2	80	-4.9	0	0	---	0.00	30.409 
03:40	-0.2	-0.2	-0.2	80	-4.9	0	0	---	0.00	30.410 
03:45	-0.4	-0.4	-0.4	79	-5.3	0	0	---	0.00	30.410 
03:50	-0.6	-0.6	-0.6	79	-5.5	0	0	---	0.00	30.411 
03:55	-1.0	-1.0	-1.0	79	-5.9	0	0	---	0.00	30.411 
04:00	-1.2	-1.2	-1.2	79	-6.1	0	0	---	0.00	30.410 
04:05	-1.4	-1.4	-1.4	79	-6.3	0	0	---	0.00	30.415 
04:10	-1.8	-1.8	-1.8	78	-7.0	0	0	---	0.00	30.416 
04:15	-2.2	-2.2	-2.2	78	-7.3	0	0	---	0.00	30.415 
04:20	-2.6	-2.6	-2.6	77	-8.0	0	0	---	0.00	30.417 
04:25	-3.1	-3.1	-3.1	77	-8.5	0	0	---	0.00	30.421 
04:30	-3.3	-3.3	-3.3	77	-8.7	0	0	---	0.00	30.423 
04:35	-3.7	-3.7	-3.7	77	-9.1	0	0	---	0.00	30.424 
04:40	-3.7	-3.7	-3.7	77	-9.1	0	0	---	0.00	30.425 
04:45	-3.5	-3.5	-3.5	77	-8.9	0	0	---	0.00	30.426 
04:50	-3.5	-3.5	-3.5	77	-8.9	0	0	---	0.00	30.427 
04:55	-3.5	-3.5	-3.5	77	-8.9	0	0	---	0.00	30.427 
05:00	-3.7	-3.7	-3.7	77	-9.1	0	0	---	0.00	30.427 
05:05	-3.9	-3.9	-3.9	77	-9.3	0	0	---	0.00	30.430 
05:10	-4.1	-4.1	-4.1	77	-9.5	0	0	---	0.00	30.432 
05:15	-4.3	-4.3	-4.3	77	-9.6	0	0	---	0.00	30.436 
05:20	-4.6	-4.6	-4.6	77	-9.9	0	0	---	0.00	30.438 
05:25	-4.6	-4.6	-4.6	77	-9.9	0	0	---	0.00	30.441 
05:30	-4.8	-4.8	-4.8	77	-10.1	0	0	---	0.00	30.444 
05:35	-4.8	-4.8	-4.8	77	-10.1	0	0	---	0.00	30.445 
05:40	-5.0	-5.0	-5.0	76	-10.6	0	0	---	0.00	30.448 
05:45	-5.2	-5.2	-5.2	76	-10.8	0	0	---	0.00	30.452 
05:50	-5.2	-5.2	-5.2	77	-10.5	0	0	---	0.00	30.454 
05:55	-5.2	-5.2	-5.2	76	-10.8	0	0	---	0.00	30.455 
06:00	-5.2	-5.2	-5.2	77	-10.5	0	0	---	0.00	30.455 
06:05	-5.2	-5.2	-5.2	77	-10.5	0	0	---	0.00	30.456 
06:10	-4.8	-4.8	-4.8	77	-10.1	0	0	---	0.00	30.459 
06:15	-4.6	-4.6	-4.6	77	-9.9	0	0	---	0.00	30.462 
06:20	-3.9	-3.9	-3.9	77	-9.3	0	1	270	0.00	30.463 
06:25	-3.5	-3.5	-3.5	78	-8.6	0	1	112	0.00	30.466 
06:30	-2.8	-2.8	-2.8	78	-7.9	0	1	112	0.00	30.468 
06:35	-2.6	-2.6	-2.6	78	-7.7	0	1	112	0.00	30.468 
06:40	-2.2	-2.2	-2.2	79	-7.1	0	1	112	0.00	30.469 
06:45	-2.0	-2.0	-2.0	79	-6.9	0	1	112	0.00	30.471 
06:50	-1.8	-1.8	-1.8	78	-7.0	0	0	---	0.00	30.475 
06:55	-1.8	-1.8	-1.8	78	-7.0	0	0	---	0.00	30.475 
07:00	-1.8	-1.8	-1.8	78	-7.0	0	0	---	0.00	30.476 
07:05	-1.8	-1.8	-1.8	78	-7.0	0	0	---	0.00	30.478 
07:10	-1.8	-1.8	-1.8	78	-7.0	0	0	---	0.00	30.479 
07:15	-1.8	-1.8	-1.8	78	-7.0	0	0	---	0.00	30.479 
07:20	-1.4	-1.4	-1.4	79	-6.3	0	1	112	0.00	30.481 
07:25	-0.4	-0.4	-0.4	80	-5.1	0	1	270	0.00	30.480 
07:30	1.1	1.1	1.1	81	-3.3	0	1	270	0.00	30.484 
07:35	2.2	2.2	2.2	82	-2.0	0	2	248	0.00	30.485 
07:40	3.0	3.0	3.0	82	-1.2	0	1	270	0.00	30.486 
07:45	3.5	3.5	3.5	82	-0.7	0	2	248	0.00	30.485 
07:50	3.7	3.7	3.7	82	-0.5	0	2	248	0.00	30.485 
07:55	3.9	3.9	3.9	81	-0.6	0	1	248	0.00	30.485 
08:00	4.1	4.1	4.1	81	-0.4	0	1	248	0.00	30.485 
08:05	4.1	4.1	4.1	81	-0.4	0	2	248	0.00	30.490 
08:10	4.3	4.3	4.3	81	-0.2	0	2	248	0.00	30.491 
08:15	4.5	4.5	4.5	81	-0.0	0	2	248	0.00	30.491 
08:20	4.5	4.5	4.5	81	-0.0	0	2	248	0.00	30.494 
08:25	4.7	4.7	4.7	81	0.2	0	2	248	0.00	30.495 
08:30	4.7	4.7	4.7	81	0.2	1	3	248	0.00	30.501 
08:35	4.7	4.7	4.7	81	0.2	1	3	248	0.00	30.502 
08:40	4.7	4.7	4.7	81	0.2	1	3	248	0.00	30.503 
08:45	4.7	4.7	4.7	81	0.2	1	4	248	0.00	30.504 
08:50	4.7	4.7	4.7	80	-0.1	1	2	248	0.00	30.505 
08:55	4.7	4.7	4.7	80	-0.1	1	3	248	0.00	30.505 
09:00	4.5	4.5	4.5	80	-0.3	1	3	248	0.00	30.507 
09:05	4.3	4.3	4.3	80	-0.5	1	2	248	0.00	30.515 
09:10	4.3	4.3	4.3	80	-0.5	1	4	248	0.00	30.517 
09:15	4.1	4.1	4.1	79	-0.9	2	4	248	0.00	30.518 
09:20	3.9	3.9	3.9	79	-1.1	1	3	248	0.00	30.520 
09:25	3.5	3.5	3.5	79	-1.5	1	3	248	0.00	30.522 
09:30	3.4	3.4	3.4	79	-1.6	1	4	248	0.00	30.523 
09:35	3.2	3.2	3.2	78	-2.1	1	4	248	0.00	30.524 
09:40	3.0	3.0	3.0	78	-2.3	1	3	248	0.00	30.526 
09:45	2.8	2.8	2.8	78	-2.5	1	4	248	0.00	30.531 
09:50	2.4	2.4	2.4	78	-2.9	2	4	248	0.00	30.534 
09:55	2.2	2.2	2.2	77	-3.3	2	3	248	0.00	30.538 
10:00	2.0	2.0	2.0	77	-3.5	1	3	270	0.00	30.541 
10:05	2.0	2.0	2.0	77	-3.5	1	3	270	0.00	30.544 
10:10	1.8	1.8	1.8	77	-3.7	1	3	248	0.00	30.546 
10:15	1.7	1.7	1.7	77	-3.8	2	6	270	0.00	30.550 
10:20	1.8	1.8	1.8	77	-3.7	2	3	270	0.00	30.551 
10:25	1.5	1.5	1.5	76	-4.3	1	2	248	0.00	30.554 
10:30	1.3	1.3	1.3	75	-4.7	1	4	248	0.00	30.556 
10:35	1.5	1.5	1.5	76	-4.3	1	3	270	0.00	30.559 
10:40	1.7	1.7	1.7	76	-4.1	2	5	270	0.00	30.560 
10:45	1.7	1.7	1.7	75	-4.4	1	3	248	0.00	30.561 
10:50	1.5	1.5	1.5	75	-4.6	2	4	248	0.00	30.562 
10:55	1.7	1.7	1.7	75	-4.4	2	3	270	0.00	30.566 
11:00	1.7	1.7	1.7	75	-4.4	1	4	270	0.00	30.568 
11:05	1.8	1.8	1.8	75	-4.3	1	3	270	0.00	30.572 
11:10	1.8	1.8	1.8	74	-4.5	1	3	248	0.00	30.573 
11:15	1.7	1.7	1.7	74	-4.6	2	5	270	0.00	30.572 
11:20	1.7	1.7	1.7	74	-4.6	2	5	248	0.00	30.572 
11:25	1.7	1.7	1.7	73	-4.9	2	4	270	0.00	30.574 
11:30	1.7	1.7	1.7	73	-4.9	2	3	270	0.00	30.573 
11:35	1.5	1.5	1.5	73	-5.1	1	3	248	0.00	30.573 
11:40	1.7	1.7	1.7	73	-4.9	1	3	270	0.00	30.573 
11:45	1.8	1.8	1.8	73	-4.8	1	2	270	0.00	30.573 
11:50	2.2	2.2	2.2	73	-4.4	1	3	248	0.00	30.573 
11:55	2.6	2.6	2.6	73	-4.0	1	4	248	0.00	30.573 
12:00	2.8	2.8	2.8	73	-3.9	1	3	248	0.00	30.572 
12:05	3.2	3.2	3.2	73	-3.5	2	4	248	0.00	30.573 
12:10	3.4	3.4	3.4	73	-3.3	2	5	248	0.00	30.572 
12:15	3.5	3.5	3.5	73	-3.2	1	5	248	0.00	30.572 
12:20	3.9	3.9	3.9	73	-2.8	1	4	270	0.00	30.571 
12:25	4.3	4.3	4.3	73	-2.4	2	5	270	0.00	30.571 
12:30	4.8	4.8	4.8	73	-1.9	1	3	248	0.00	30.568 
12:35	4.8	4.8	4.8	71	-2.5	2	6	248	0.00	30.567 
12:40	4.8	4.8	4.8	71	-2.5	2	5	270	0.00	30.564 
12:45	4.7	4.7	4.7	70	-2.9	2	5	270	0.00	30.564 
12:50	4.8	4.8	4.8	71	-2.5	2	5	270	0.00	30.563 
12:55	4.5	4.5	4.5	69	-3.4	3	6	248	0.00	30.561 
13:00	4.5	4.5	4.5	69	-3.4	2	7	270	0.00	30.568 
13:05	4.5	4.5	4.5	69	-3.4	2	4	270	0.00	30.571 
13:10	4.5	4.5	4.5	68	-3.7	2	5	270	0.00	30.569 
13:15	4.3	4.3	4.3	67	-4.2	3	7	270	0.00	30.570 
13:20	3.9	3.9	3.9	67	-4.6	3	7	270	0.00	30.570 
13:25	3.7	3.7	3.7	66	-5.1	3	9	270	0.00	30.572 
13:30	3.2	-5.2	3.2	66	-5.6	4	10	270	0.00	30.573 
13:35	2.8	2.8	2.8	67	-5.6	2	6	270	0.00	30.573 
13:40	2.6	2.6	2.6	67	-5.8	3	5	270	0.00	30.573 
13:45	3.0	3.0	3.0	67	-5.4	2	5	270	0.00	30.572 
13:50	2.8	-5.7	2.8	66	-5.9	4	11	270	0.00	30.573 
13:55	2.8	2.8	2.8	67	-5.6	3	6	270	0.00	30.573 
14:00	2.6	-5.9	2.6	66	-6.1	4	9	270	0.00	30.575 
14:05	2.4	-6.1	2.4	66	-6.3	4	7	270	0.00	30.576 
14:10	2.4	-6.1	2.4	65	-6.6	4	10	270	0.00	30.576 
14:15	2.6	2.6	2.6	66	-6.1	3	10	270	0.00	30.576 
14:20	2.6	2.6	2.6	65	-6.4	3	9	270	0.00	30.576 
14:25	2.2	2.2	2.2	63	-7.5	3	6	270	0.00	30.578 
14:30	2.2	2.2	2.2	64	-7.1	3	9	270	0.00	30.577 
14:35	2.2	2.2	2.2	64	-7.1	3	6	270	0.00	30.576 
14:40	2.2	2.2	2.2	63	-7.5	3	6	270	0.00	30.577 
14:45	2.0	-6.6	2.0	63	-7.7	4	9	270	0.00	30.578 
14:50	1.8	1.8	1.8	63	-7.8	3	6	270	0.00	30.577 
14:55	1.8	1.8	1.8	63	-7.8	3	4	270	0.00	30.576 
15:00	1.8	-6.8	1.8	62	-8.2	4	10	270	0.00	30.581 
15:05	1.7	-6.9	1.7	63	-7.9	4	10	270	0.00	30.584 
15:10	1.7	1.7	1.7	62	-8.3	3	6	270	0.00	30.584 
15:15	2.0	2.0	2.0	63	-7.7	3	6	270	0.00	30.585 
15:20	1.8	1.8	1.8	62	-8.2	3	7	248	0.00	30.586 
15:25	1.8	1.8	1.8	62	-8.2	3	5	248	0.00	30.589 
15:30	1.8	1.8	1.8	62	-8.2	3	6	248	0.00	30.589 
15:35	1.5	1.5	1.5	61	-8.8	3	9	270	0.00	30.592 
15:40	1.1	1.1	1.1	61	-9.2	3	7	270	0.00	30.593 
15:45	0.9	-7.8	0.9	61	-9.4	4	10	270	0.00	30.594 
15:50	0.7	-8.1	0.7	60	-9.9	4	11	270	0.00	30.594 
15:55	0.7	0.7	0.7	60	-9.9	3	7	270	0.00	30.596 
16:00	0.5	0.5	0.5	60	-10.1	3	6	270	0.00	30.598 
16:05	0.3	0.3	0.3	59	-10.6	3	6	270	0.00	30.605 
16:10	0.3	0.3	0.3	59	-10.6	3	7	270	0.00	30.611 
16:15	0.3	-8.5	0.3	59	-10.6	4	12	248	0.00	30.614 
16:20	0.0	-8.9	0.0	58	-11.2	4	6	270	0.00	30.614 
16:25	-0.2	-0.2	-0.2	58	-11.4	3	6	270	0.00	30.615 
16:30	-0.4	-9.3	-0.4	58	-11.6	4	8	270	0.00	30.618 
16:35	-0.6	-0.6	-0.6	58	-11.8	3	5	270	0.00	30.619 
16:40	-0.8	-0.8	-0.8	58	-12.0	2	5	270	0.00	30.620 
16:45	-1.0	-1.0	-1.0	57	-12.5	3	10	270	0.00	30.625 
16:50	-1.2	-1.2	-1.2	58	-12.4	2	6	248	0.00	30.626 
16:55	-1.6	-1.6	-1.6	57	-13.1	3	7	270	0.00	30.628 
17:00	-2.0	-2.0	-2.0	57	-13.5	3	6	270	0.00	30.632 
17:05	-2.2	-2.2	-2.2	56	-14.0	3	9	248	0.00	30.632 
17:10	-2.6	-2.6	-2.6	56	-14.4	3	9	270	0.00	30.633 
17:15	-2.8	-2.8	-2.8	56	-14.6	3	9	270	0.00	30.637 
17:20	-3.1	-3.1	-3.1	56	-14.8	3	10	270	0.00	30.643 
17:25	-3.5	-3.5	-3.5	56	-15.2	2	5	270	0.00	30.646 
17:30	-3.7	-3.7	-3.7	56	-15.4	3	9	248	0.00	30.648 
17:35	-3.9	-3.9	-3.9	56	-15.6	3	6	270	0.00	30.648 
17:40	-4.1	-4.1	-4.1	56	-15.8	3	6	270	0.00	30.650 
17:45	-4.3	-4.3	-4.3	57	-15.6	3	5	270	0.00	30.650 
17:50	-4.6	-4.6	-4.6	57	-15.9	2	6	270	0.00	30.650 
17:55	-4.6	-4.6	-4.6	57	-15.9	3	7	270	0.00	30.652 
18:00	-4.8	-4.8	-4.8	57	-16.1	2	9	270	0.00	30.655 
18:05	-4.8	-4.8	-4.8	57	-16.1	2	5	270	0.00	30.651 
18:10	-4.8	-4.8	-4.8	58	-15.8	3	6	270	0.00	30.654 
18:15	-5.0	-5.0	-5.0	58	-15.9	2	6	270	0.00	30.657 
18:20	-5.0	-5.0	-5.0	58	-15.9	2	7	270	0.00	30.656 
18:25	-5.2	-5.2	-5.2	58	-16.1	2	5	248	0.00	30.658 
18:30	-5.4	-5.4	-5.4	59	-16.0	3	6	270	0.00	30.660 
18:35	-5.4	-5.4	-5.4	59	-16.0	3	9	270	0.00	30.659 
18:40	-5.6	-15.4	-5.6	59	-16.2	4	9	270	0.00	30.663 
18:45	-5.9	-5.9	-5.9	59	-16.5	3	7	270	0.00	30.664 
18:50	-6.1	-6.1	-6.1	59	-16.7	3	7	270	0.00	30.666 
18:55	-6.3	-6.3	-6.3	60	-16.5	3	9	270	0.00	30.666 
19:00	-6.5	-6.5	-6.5	60	-16.7	2	5	270	0.00	30.667 
19:05	-6.5	-6.5	-6.5	60	-16.7	3	12	270	0.00	30.659 
19:10	-6.8	-6.8	-6.8	60	-17.0	3	10	270	0.00	30.662 
19:15	-7.0	-7.0	-7.0	60	-17.2	3	8	270	0.00	30.662 
19:20	-7.2	-7.2	-7.2	60	-17.4	3	11	270	0.00	30.665 
19:25	-7.2	-7.2	-7.2	61	-17.0	3	12	270	0.00	30.662 
19:30	-7.5	-7.5	-7.5	61	-17.3	2	4	270	0.00	30.666 
19:35	-7.7	-7.7	-7.7	62	-17.2	3	5	270	0.00	30.668 
19:40	-7.7	-17.8	-7.7	62	-17.2	4	9	270	0.00	30.672 
19:45	-7.9	-7.9	-7.9	62	-17.4	3	13	270	0.00	30.671 
19:50	-8.2	-8.2	-8.2	62	-17.7	3	9	270	0.00	30.676 
19:55	-8.4	-8.4	-8.4	62	-17.9	3	5	270	0.00	30.676 
20:00	-8.6	-8.6	-8.6	62	-18.1	2	5	270	0.00	30.678 
20:05	-8.6	-8.6	-8.6	63	-17.8	3	9	270	0.00	30.680 
20:10	-8.9	-8.9	-8.9	63	-18.0	3	6	270	0.00	30.682 
20:15	-8.9	-8.9	-8.9	63	-18.0	2	10	270	0.00	30.687 
20:20	-9.1	-9.1	-9.1	63	-18.2	3	5	270	0.00	30.686 
20:25	-9.3	-9.3	-9.3	63	-18.4	2	7	270	0.00	30.687 
20:30	-9.3	-9.3	-9.3	64	-18.1	2	5	270	0.00	30.689 
20:35	-9.6	-9.6	-9.6	64	-18.4	3	9	270	0.00	30.690 
20:40	-9.6	-9.6	-9.6	64	-18.4	2	4	270	0.00	30.690 
20:45	-9.8	-9.8	-9.8	64	-18.6	2	6	270	0.00	30.690 
20:50	-9.8	-9.8	-9.8	64	-18.6	3	6	270	0.00	30.692 
20:55	-9.8	-9.8	-9.8	65	-18.3	3	6	270	0.00	30.693 
21:00	-9.8	-9.8	-9.8	65	-18.3	3	9	248	0.00	30.693 
21:05	-10.0	-10.0	-10.0	65	-18.5	3	8	270	0.00	30.697 
21:10	-10.0	-10.0	-10.0	65	-18.5	3	8	270	0.00	30.697 
21:15	-10.0	-10.0	-10.0	65	-18.5	2	5	270	0.00	30.697 
21:20	-10.3	-10.3	-10.3	65	-18.8	2	9	270	0.00	30.697 
21:25	-10.3	-10.3	-10.3	65	-18.8	3	11	270	0.00	30.698 
21:30	-10.3	-10.3	-10.3	65	-18.8	3	7	270	0.00	30.700 
21:35	-10.5	-10.5	-10.5	65	-19.0	3	10	270	0.00	30.698 
21:40	-10.5	-10.5	-10.5	65	-19.0	2	10	270	0.00	30.700 
21:45	-10.7	-10.7	-10.7	65	-19.2	2	10	270	0.00	30.703 
21:50	-10.7	-10.7	-10.7	65	-19.2	3	6	270	0.00	30.699 
21:55	-10.7	-10.7	-10.7	65	-19.2	3	10	248	0.00	30.698 
22:00	-11.0	-11.0	-11.0	65	-19.4	2	4	248	0.00	30.699 
22:05	-11.0	-11.0	-11.0	65	-19.4	2	9	248	0.00	30.699 
22:10	-11.2	-11.2	-11.2	65	-19.6	2	6	248	0.00	30.703 
22:15	-11.2	-11.2	-11.2	65	-19.6	2	4	248	0.00	30.700 
22:20	-11.2	-11.2	-11.2	65	-19.6	2	7	248	0.00	30.703 
22:25	-11.5	-11.5	-11.5	65	-19.9	2	9	248	0.00	30.710 
22:30	-11.5	-11.5	-11.5	65	-19.9	2	6	248	0.00	30.713 
22:35	-11.7	-11.7	-11.7	65	-20.1	3	9	248	0.00	30.712 
22:40	-11.7	-11.7	-11.7	65	-20.1	2	6	248	0.00	30.713 
22:45	-11.7	-11.7	-11.7	65	-20.1	2	5	270	0.00	30.713 
22:50	-12.0	-12.0	-12.0	65	-20.4	2	5	270	0.00	30.713 
22:55	-12.0	-12.0	-12.0	65	-20.4	2	4	270	0.00	30.714 
23:00	-12.2	-12.2	-12.2	65	-20.6	2	9	270	0.00	30.714 
23:05	-12.2	-12.2	-12.2	65	-20.6	2	4	248	0.00	30.712 
23:10	-12.2	-12.2	-12.2	65	-20.6	2	6	248	0.00	30.712 
23:15	-12.5	-12.5	-12.5	65	-20.9	2	4	248	0.00	30.714 
23:20	-12.5	-12.5	-12.5	65	-20.9	2	6	248	0.00	30.715 
23:25	-12.5	-12.5	-12.5	65	-20.9	3	9	248	0.00	30.715 
23:30	-12.8	-12.8	-12.8	65	-21.2	2	4	248	0.00	30.715 
23:35	-12.8	-12.8	-12.8	65	-21.2	2	7	248	0.00	30.715 
23:40	-12.8	-12.8	-12.8	65	-21.2	2	6	270	0.00	30.714 
23:45	-13.0	-13.0	-13.0	64	-21.7	1	2	248	0.00	30.715 
23:50	-13.0	-13.0	-13.0	65	-21.4	2	5	248	0.00	30.715 
23:55	-13.0	-13.0	-13.0	65	-21.4	2	6	248	0.00	30.716 

CoCoRaHS
IN-AL-39
A2 Web Hosting
Creative Commons License
GoDaddy
search engine by freefind advanced

loaded 2018-11-16 11:00:00 • last modified 2010-11-18 10:43:29
Privacy PolicyDisclaimer
• wx.awcolley.com is powered by PmWiki v.2002016 •
• all content (unless otherwise noted) © 2018 A W Colley